sensor_id;sensor_type;location;lat;lon;timestamp;temperature;humidity
59505;DHT22;45321;53.200;5.814;2023-12-22T00:00:01;7.10;77.90
59505;DHT22;45321;53.200;5.814;2023-12-22T00:02:27;7.10;77.80
59505;DHT22;45321;53.200;5.814;2023-12-22T00:04:54;7.10;77.70
59505;DHT22;45321;53.200;5.814;2023-12-22T00:07:19;7.10;77.80
59505;DHT22;45321;53.200;5.814;2023-12-22T00:09:45;7.10;77.30
59505;DHT22;45321;53.200;5.814;2023-12-22T00:12:11;7.10;77.10
59505;DHT22;45321;53.200;5.814;2023-12-22T00:14:37;7.00;76.60
59505;DHT22;45321;53.200;5.814;2023-12-22T00:17:06;7.00;76.30
59505;DHT22;45321;53.200;5.814;2023-12-22T00:19:31;7.00;76.10
59505;DHT22;45321;53.200;5.814;2023-12-22T00:21:57;7.10;76.70
59505;DHT22;45321;53.200;5.814;2023-12-22T00:24:23;7.00;76.50
59505;DHT22;45321;53.200;5.814;2023-12-22T00:26:50;7.10;75.60
59505;DHT22;45321;53.200;5.814;2023-12-22T00:29:15;7.20;75.40
59505;DHT22;45321;53.200;5.814;2023-12-22T00:31:41;7.30;75.20
59505;DHT22;45321;53.200;5.814;2023-12-22T00:34:06;7.30;74.50
59505;DHT22;45321;53.200;5.814;2023-12-22T00:36:32;7.30;74.50
59505;DHT22;45321;53.200;5.814;2023-12-22T00:38:58;7.40;74.50
59505;DHT22;45321;53.200;5.814;2023-12-22T00:41:23;7.30;74.90
59505;DHT22;45321;53.200;5.814;2023-12-22T00:43:49;7.30;75.00
59505;DHT22;45321;53.200;5.814;2023-12-22T00:46:15;7.30;75.30
59505;DHT22;45321;53.200;5.814;2023-12-22T00:48:40;7.30;75.60
59505;DHT22;45321;53.200;5.814;2023-12-22T00:51:06;7.30;75.50
59505;DHT22;45321;53.200;5.814;2023-12-22T00:53:33;7.30;75.90
59505;DHT22;45321;53.200;5.814;2023-12-22T00:55:59;7.30;76.50
59505;DHT22;45321;53.200;5.814;2023-12-22T00:58:26;7.30;76.20
59505;DHT22;45321;53.200;5.814;2023-12-22T01:00:52;7.20;76.30
59505;DHT22;45321;53.200;5.814;2023-12-22T01:03:17;7.10;76.10
59505;DHT22;45321;53.200;5.814;2023-12-22T01:05:43;7.10;76.30
59505;DHT22;45321;53.200;5.814;2023-12-22T01:08:09;7.00;76.20
59505;DHT22;45321;53.200;5.814;2023-12-22T01:10:35;6.90;76.30
59505;DHT22;45321;53.200;5.814;2023-12-22T01:13:00;6.90;76.60
59505;DHT22;45321;53.200;5.814;2023-12-22T01:15:27;6.80;76.60
59505;DHT22;45321;53.200;5.814;2023-12-22T01:17:52;6.80;76.50
59505;DHT22;45321;53.200;5.814;2023-12-22T01:20:18;6.80;76.20
59505;DHT22;45321;53.200;5.814;2023-12-22T01:22:44;6.80;76.30
59505;DHT22;45321;53.200;5.814;2023-12-22T01:25:10;6.80;76.40
59505;DHT22;45321;53.200;5.814;2023-12-22T01:27:35;6.80;76.50
59505;DHT22;45321;53.200;5.814;2023-12-22T01:30:01;6.90;76.70
59505;DHT22;45321;53.200;5.814;2023-12-22T01:32:27;6.90;77.00
59505;DHT22;45321;53.200;5.814;2023-12-22T01:34:58;7.00;77.30
59505;DHT22;45321;53.200;5.814;2023-12-22T01:37:25;7.00;77.70
59505;DHT22;45321;53.200;5.814;2023-12-22T01:39:51;7.10;77.80
59505;DHT22;45321;53.200;5.814;2023-12-22T01:42:17;7.10;77.80
59505;DHT22;45321;53.200;5.814;2023-12-22T01:44:42;7.10;77.80
59505;DHT22;45321;53.200;5.814;2023-12-22T01:47:08;7.10;77.10
59505;DHT22;45321;53.200;5.814;2023-12-22T01:49:34;7.20;76.50
59505;DHT22;45321;53.200;5.814;2023-12-22T01:51:59;7.30;76.00
59505;DHT22;45321;53.200;5.814;2023-12-22T01:54:25;7.30;76.00
59505;DHT22;45321;53.200;5.814;2023-12-22T01:56:51;7.30;75.70
59505;DHT22;45321;53.200;5.814;2023-12-22T01:59:17;7.30;75.80
59505;DHT22;45321;53.200;5.814;2023-12-22T02:01:43;7.30;75.90
59505;DHT22;45321;53.200;5.814;2023-12-22T02:04:11;7.30;76.10
59505;DHT22;45321;53.200;5.814;2023-12-22T02:06:37;7.20;76.10
59505;DHT22;45321;53.200;5.814;2023-12-22T02:09:03;7.10;76.10
59505;DHT22;45321;53.200;5.814;2023-12-22T02:11:29;7.00;76.10
59505;DHT22;45321;53.200;5.814;2023-12-22T02:13:55;7.00;76.10
59505;DHT22;45321;53.200;5.814;2023-12-22T02:19:33;7.00;76.80
59505;DHT22;45321;53.200;5.814;2023-12-22T02:22:05;7.00;77.20
59505;DHT22;45321;53.200;5.814;2023-12-22T02:24:31;7.10;77.60
59505;DHT22;45321;53.200;5.814;2023-12-22T02:27:49;7.20;78.00
59505;DHT22;45321;53.200;5.814;2023-12-22T02:30:11;7.20;78.10
59505;DHT22;45321;53.200;5.814;2023-12-22T02:32:43;7.10;77.20
59505;DHT22;45321;53.200;5.814;2023-12-22T02:35:15;7.10;77.20
59505;DHT22;45321;53.200;5.814;2023-12-22T02:37:42;7.10;77.20
59505;DHT22;45321;53.200;5.814;2023-12-22T02:40:08;7.00;77.50
59505;DHT22;45321;53.200;5.814;2023-12-22T02:42:36;7.00;77.70
59505;DHT22;45321;53.200;5.814;2023-12-22T02:45:06;6.90;77.80
59505;DHT22;45321;53.200;5.814;2023-12-22T02:47:32;6.90;78.20
59505;DHT22;45321;53.200;5.814;2023-12-22T02:49:59;6.90;78.60
59505;DHT22;45321;53.200;5.814;2023-12-22T02:52:24;6.80;79.00
59505;DHT22;45321;53.200;5.814;2023-12-22T02:54:50;6.80;79.40
59505;DHT22;45321;53.200;5.814;2023-12-22T02:57:16;6.80;79.90
59505;DHT22;45321;53.200;5.814;2023-12-22T02:59:42;6.80;80.30
59505;DHT22;45321;53.200;5.814;2023-12-22T03:02:07;6.80;80.70
59505;DHT22;45321;53.200;5.814;2023-12-22T03:04:33;6.80;80.90
59505;DHT22;45321;53.200;5.814;2023-12-22T03:06:59;6.80;81.00
59505;DHT22;45321;53.200;5.814;2023-12-22T03:09:24;6.80;80.80
59505;DHT22;45321;53.200;5.814;2023-12-22T03:11:50;6.80;80.40
59505;DHT22;45321;53.200;5.814;2023-12-22T03:14:20;6.80;80.10
59505;DHT22;45321;53.200;5.814;2023-12-22T03:16:45;6.80;79.80
59505;DHT22;45321;53.200;5.814;2023-12-22T03:19:11;6.80;79.00
59505;DHT22;45321;53.200;5.814;2023-12-22T03:21:37;6.80;78.70
59505;DHT22;45321;53.200;5.814;2023-12-22T03:24:03;6.90;78.50
59505;DHT22;45321;53.200;5.814;2023-12-22T03:26:28;6.90;78.20
59505;DHT22;45321;53.200;5.814;2023-12-22T03:28:54;6.90;77.00
59505;DHT22;45321;53.200;5.814;2023-12-22T03:31:20;6.90;76.50
59505;DHT22;45321;53.200;5.814;2023-12-22T03:33:45;7.00;76.30
59505;DHT22;45321;53.200;5.814;2023-12-22T03:36:11;7.00;76.50
59505;DHT22;45321;53.200;5.814;2023-12-22T03:38:37;7.00;76.50
59505;DHT22;45321;53.200;5.814;2023-12-22T03:41:03;7.10;76.70
59505;DHT22;45321;53.200;5.814;2023-12-22T03:43:29;7.00;76.50
59505;DHT22;45321;53.200;5.814;2023-12-22T03:45:57;7.10;76.20
59505;DHT22;45321;53.200;5.814;2023-12-22T03:48:22;7.10;76.00
59505;DHT22;45321;53.200;5.814;2023-12-22T03:50:48;7.10;75.90
59505;DHT22;45321;53.200;5.814;2023-12-22T03:53:14;7.10;75.60
59505;DHT22;45321;53.200;5.814;2023-12-22T03:55:39;7.20;75.30
59505;DHT22;45321;53.200;5.814;2023-12-22T03:58:05;7.20;75.30
59505;DHT22;45321;53.200;5.814;2023-12-22T04:00:33;7.20;75.40
59505;DHT22;45321;53.200;5.814;2023-12-22T04:02:59;7.30;75.20
59505;DHT22;45321;53.200;5.814;2023-12-22T04:05:24;7.30;75.40
59505;DHT22;45321;53.200;5.814;2023-12-22T04:07:50;7.30;75.10
59505;DHT22;45321;53.200;5.814;2023-12-22T04:10:17;7.30;74.50
59505;DHT22;45321;53.200;5.814;2023-12-22T04:12:43;7.30;74.70
59505;DHT22;45321;53.200;5.814;2023-12-22T04:15:09;7.30;74.90
59505;DHT22;45321;53.200;5.814;2023-12-22T04:17:35;7.30;75.10
59505;DHT22;45321;53.200;5.814;2023-12-22T04:20:01;7.30;75.60
59505;DHT22;45321;53.200;5.814;2023-12-22T04:22:27;7.30;75.40
59505;DHT22;45321;53.200;5.814;2023-12-22T04:24:52;7.30;75.70
59505;DHT22;45321;53.200;5.814;2023-12-22T04:27:18;7.30;75.60
59505;DHT22;45321;53.200;5.814;2023-12-22T04:29:43;7.30;75.60
59505;DHT22;45321;53.200;5.814;2023-12-22T04:32:09;7.40;75.10
59505;DHT22;45321;53.200;5.814;2023-12-22T04:34:35;7.40;74.90
59505;DHT22;45321;53.200;5.814;2023-12-22T04:37:00;7.40;74.80
59505;DHT22;45321;53.200;5.814;2023-12-22T04:39:26;7.40;74.90
59505;DHT22;45321;53.200;5.814;2023-12-22T04:41:52;7.40;75.00
59505;DHT22;45321;53.200;5.814;2023-12-22T04:44:18;7.40;75.20
59505;DHT22;45321;53.200;5.814;2023-12-22T04:46:43;7.40;75.20
59505;DHT22;45321;53.200;5.814;2023-12-22T04:49:09;7.40;75.20
59505;DHT22;45321;53.200;5.814;2023-12-22T04:51:35;7.40;75.60
59505;DHT22;45321;53.200;5.814;2023-12-22T04:54:00;7.50;75.70
59505;DHT22;45321;53.200;5.814;2023-12-22T04:56:26;7.40;75.70
59505;DHT22;45321;53.200;5.814;2023-12-22T04:58:52;7.50;75.40
59505;DHT22;45321;53.200;5.814;2023-12-22T05:01:18;7.40;74.70
59505;DHT22;45321;53.200;5.814;2023-12-22T05:03:44;7.50;74.60
59505;DHT22;45321;53.200;5.814;2023-12-22T05:06:10;7.40;74.90
59505;DHT22;45321;53.200;5.814;2023-12-22T05:08:36;7.40;74.80
59505;DHT22;45321;53.200;5.814;2023-12-22T05:11:02;7.40;73.90
59505;DHT22;45321;53.200;5.814;2023-12-22T05:13:28;7.50;74.00
59505;DHT22;45321;53.200;5.814;2023-12-22T05:15:54;7.50;73.80
59505;DHT22;45321;53.200;5.814;2023-12-22T05:18:20;7.50;73.40
59505;DHT22;45321;53.200;5.814;2023-12-22T05:20:46;7.50;73.50
59505;DHT22;45321;53.200;5.814;2023-12-22T05:23:12;7.50;73.60
59505;DHT22;45321;53.200;5.814;2023-12-22T05:25:37;7.50;73.70
59505;DHT22;45321;53.200;5.814;2023-12-22T05:28:03;7.50;74.00
59505;DHT22;45321;53.200;5.814;2023-12-22T05:30:29;7.50;74.40
59505;DHT22;45321;53.200;5.814;2023-12-22T05:32:55;7.50;74.20
59505;DHT22;45321;53.200;5.814;2023-12-22T05:35:20;7.50;73.90
59505;DHT22;45321;53.200;5.814;2023-12-22T05:37:49;7.60;73.70
59505;DHT22;45321;53.200;5.814;2023-12-22T05:40:14;7.60;72.90
59505;DHT22;45321;53.200;5.814;2023-12-22T05:42:40;7.60;73.20
59505;DHT22;45321;53.200;5.814;2023-12-22T05:45:07;7.60;73.20
59505;DHT22;45321;53.200;5.814;2023-12-22T05:47:35;7.60;73.10
59505;DHT22;45321;53.200;5.814;2023-12-22T05:50:00;7.60;72.90
59505;DHT22;45321;53.200;5.814;2023-12-22T05:52:26;7.60;72.90
59505;DHT22;45321;53.200;5.814;2023-12-22T05:54:52;7.60;73.20
59505;DHT22;45321;53.200;5.814;2023-12-22T05:57:17;7.70;73.20
59505;DHT22;45321;53.200;5.814;2023-12-22T05:59:43;7.60;73.40
59505;DHT22;45321;53.200;5.814;2023-12-22T06:02:09;7.60;73.70
59505;DHT22;45321;53.200;5.814;2023-12-22T06:04:34;7.70;74.20
59505;DHT22;45321;53.200;5.814;2023-12-22T06:07:00;7.60;74.30
59505;DHT22;45321;53.200;5.814;2023-12-22T06:09:26;7.70;74.20
59505;DHT22;45321;53.200;5.814;2023-12-22T06:11:52;7.70;74.40
59505;DHT22;45321;53.200;5.814;2023-12-22T06:14:18;7.70;74.50
59505;DHT22;45321;53.200;5.814;2023-12-22T06:16:43;7.70;74.50
59505;DHT22;45321;53.200;5.814;2023-12-22T06:19:12;7.70;74.20
59505;DHT22;45321;53.200;5.814;2023-12-22T06:21:38;7.70;74.10
59505;DHT22;45321;53.200;5.814;2023-12-22T06:24:05;7.70;73.90
59505;DHT22;45321;53.200;5.814;2023-12-22T06:26:31;7.80;74.10
59505;DHT22;45321;53.200;5.814;2023-12-22T06:28:56;7.70;74.00
59505;DHT22;45321;53.200;5.814;2023-12-22T06:31:22;7.80;74.10
59505;DHT22;45321;53.200;5.814;2023-12-22T06:33:50;7.70;74.50
59505;DHT22;45321;53.200;5.814;2023-12-22T06:36:23;7.70;74.50
59505;DHT22;45321;53.200;5.814;2023-12-22T06:38:50;7.80;74.50
59505;DHT22;45321;53.200;5.814;2023-12-22T06:41:42;7.70;74.60
59505;DHT22;45321;53.200;5.814;2023-12-22T06:44:08;7.80;74.40
59505;DHT22;45321;53.200;5.814;2023-12-22T06:46:36;7.80;74.50
59505;DHT22;45321;53.200;5.814;2023-12-22T06:49:01;7.80;74.70
59505;DHT22;45321;53.200;5.814;2023-12-22T06:51:29;7.80;74.70
59505;DHT22;45321;53.200;5.814;2023-12-22T06:54:01;7.80;74.60
59505;DHT22;45321;53.200;5.814;2023-12-22T06:56:33;7.80;74.90
59505;DHT22;45321;53.200;5.814;2023-12-22T06:58:59;7.80;74.70
59505;DHT22;45321;53.200;5.814;2023-12-22T07:01:29;7.80;75.00
59505;DHT22;45321;53.200;5.814;2023-12-22T07:03:55;7.80;75.20
59505;DHT22;45321;53.200;5.814;2023-12-22T07:06:22;7.80;75.50
59505;DHT22;45321;53.200;5.814;2023-12-22T07:11:48;7.80;76.10
59505;DHT22;45321;53.200;5.814;2023-12-22T07:14:14;7.80;76.50
59505;DHT22;45321;53.200;5.814;2023-12-22T07:16:43;7.80;76.70
59505;DHT22;45321;53.200;5.814;2023-12-22T07:19:09;7.80;76.90
59505;DHT22;45321;53.200;5.814;2023-12-22T07:21:36;7.80;77.20
59505;DHT22;45321;53.200;5.814;2023-12-22T07:24:02;7.90;77.40
59505;DHT22;45321;53.200;5.814;2023-12-22T07:26:28;7.80;77.70
59505;DHT22;45321;53.200;5.814;2023-12-22T07:28:56;7.90;78.10
59505;DHT22;45321;53.200;5.814;2023-12-22T07:31:22;7.90;78.60
59505;DHT22;45321;53.200;5.814;2023-12-22T07:33:48;7.90;78.90
59505;DHT22;45321;53.200;5.814;2023-12-22T07:36:14;7.90;79.20
59505;DHT22;45321;53.200;5.814;2023-12-22T07:38:39;7.90;79.60
59505;DHT22;45321;53.200;5.814;2023-12-22T07:41:05;7.90;79.70
59505;DHT22;45321;53.200;5.814;2023-12-22T07:43:31;7.90;80.00
59505;DHT22;45321;53.200;5.814;2023-12-22T07:45:57;7.90;80.30
59505;DHT22;45321;53.200;5.814;2023-12-22T07:48:29;7.90;80.30
59505;DHT22;45321;53.200;5.814;2023-12-22T07:50:57;7.90;80.30
59505;DHT22;45321;53.200;5.814;2023-12-22T07:53:23;7.80;80.20
59505;DHT22;45321;53.200;5.814;2023-12-22T07:55:48;7.80;80.20
59505;DHT22;45321;53.200;5.814;2023-12-22T07:58:14;7.80;80.10
59505;DHT22;45321;53.200;5.814;2023-12-22T08:00:40;7.80;80.10
59505;DHT22;45321;53.200;5.814;2023-12-22T08:03:06;7.80;79.60
59505;DHT22;45321;53.200;5.814;2023-12-22T08:05:32;7.80;79.70
59505;DHT22;45321;53.200;5.814;2023-12-22T08:08:01;7.80;79.80
59505;DHT22;45321;53.200;5.814;2023-12-22T08:10:27;7.80;80.10
59505;DHT22;45321;53.200;5.814;2023-12-22T08:12:53;7.70;80.00
59505;DHT22;45321;53.200;5.814;2023-12-22T08:15:19;7.70;80.00
59505;DHT22;45321;53.200;5.814;2023-12-22T08:17:48;7.60;79.90
59505;DHT22;45321;53.200;5.814;2023-12-22T08:20:21;7.50;80.20
59505;DHT22;45321;53.200;5.814;2023-12-22T08:22:47;7.50;80.30
59505;DHT22;45321;53.200;5.814;2023-12-22T08:25:14;7.40;80.40
59505;DHT22;45321;53.200;5.814;2023-12-22T08:27:41;7.50;80.50
59505;DHT22;45321;53.200;5.814;2023-12-22T08:30:08;7.40;80.50
59505;DHT22;45321;53.200;5.814;2023-12-22T08:32:37;7.40;80.60
59505;DHT22;45321;53.200;5.814;2023-12-22T08:35:09;7.40;80.50
59505;DHT22;45321;53.200;5.814;2023-12-22T08:37:35;7.40;80.30
59505;DHT22;45321;53.200;5.814;2023-12-22T08:40:00;7.40;80.40
59505;DHT22;45321;53.200;5.814;2023-12-22T08:42:27;7.50;80.60
59505;DHT22;45321;53.200;5.814;2023-12-22T08:44:54;7.50;80.70
59505;DHT22;45321;53.200;5.814;2023-12-22T08:47:20;7.50;80.70
59505;DHT22;45321;53.200;5.814;2023-12-22T08:49:45;7.50;80.80
59505;DHT22;45321;53.200;5.814;2023-12-22T08:52:11;7.50;80.80
59505;DHT22;45321;53.200;5.814;2023-12-22T08:54:39;7.60;80.90
59505;DHT22;45321;53.200;5.814;2023-12-22T08:57:04;7.60;81.10
59505;DHT22;45321;53.200;5.814;2023-12-22T08:59:30;7.60;81.10
59505;DHT22;45321;53.200;5.814;2023-12-22T09:01:56;7.60;81.20
59505;DHT22;45321;53.200;5.814;2023-12-22T09:04:22;7.60;81.20
59505;DHT22;45321;53.200;5.814;2023-12-22T09:06:51;7.60;81.30
59505;DHT22;45321;53.200;5.814;2023-12-22T09:09:17;7.70;81.30
59505;DHT22;45321;53.200;5.814;2023-12-22T09:11:43;7.70;81.40
59505;DHT22;45321;53.200;5.814;2023-12-22T09:14:10;7.80;81.60
59505;DHT22;45321;53.200;5.814;2023-12-22T09:16:36;7.80;81.50
59505;DHT22;45321;53.200;5.814;2023-12-22T09:19:03;7.80;81.60
59505;DHT22;45321;53.200;5.814;2023-12-22T09:21:29;7.80;81.50
59505;DHT22;45321;53.200;5.814;2023-12-22T09:23:54;7.90;81.70
59505;DHT22;45321;53.200;5.814;2023-12-22T09:26:20;7.90;81.70
59505;DHT22;45321;53.200;5.814;2023-12-22T09:28:49;7.90;81.70
59505;DHT22;45321;53.200;5.814;2023-12-22T09:31:14;8.00;81.70
59505;DHT22;45321;53.200;5.814;2023-12-22T09:33:41;8.00;81.90
59505;DHT22;45321;53.200;5.814;2023-12-22T09:36:08;8.10;81.90
59505;DHT22;45321;53.200;5.814;2023-12-22T09:38:34;8.10;82.00
59505;DHT22;45321;53.200;5.814;2023-12-22T09:41:00;8.10;81.90
59505;DHT22;45321;53.200;5.814;2023-12-22T09:43:26;8.10;82.10
59505;DHT22;45321;53.200;5.814;2023-12-22T09:45:53;8.20;82.10
59505;DHT22;45321;53.200;5.814;2023-12-22T09:48:20;8.20;82.30
59505;DHT22;45321;53.200;5.814;2023-12-22T09:50:53;8.30;82.50
59505;DHT22;45321;53.200;5.814;2023-12-22T09:53:20;8.30;82.60
59505;DHT22;45321;53.200;5.814;2023-12-22T09:55:47;8.30;82.60
59505;DHT22;45321;53.200;5.814;2023-12-22T09:58:14;8.30;82.60
59505;DHT22;45321;53.200;5.814;2023-12-22T10:00:42;8.40;82.60
59505;DHT22;45321;53.200;5.814;2023-12-22T10:03:10;8.40;82.60
59505;DHT22;45321;53.200;5.814;2023-12-22T10:05:37;8.40;82.70
59505;DHT22;45321;53.200;5.814;2023-12-22T10:08:04;8.50;82.90
59505;DHT22;45321;53.200;5.814;2023-12-22T10:10:32;8.50;83.00
59505;DHT22;45321;53.200;5.814;2023-12-22T10:12:59;8.50;83.00
59505;DHT22;45321;53.200;5.814;2023-12-22T10:15:26;8.50;83.20
59505;DHT22;45321;53.200;5.814;2023-12-22T10:17:55;8.60;83.40
59505;DHT22;45321;53.200;5.814;2023-12-22T10:20:21;8.60;83.40
59505;DHT22;45321;53.200;5.814;2023-12-22T10:22:50;8.70;83.50
59505;DHT22;45321;53.200;5.814;2023-12-22T10:25:20;8.70;83.40
59505;DHT22;45321;53.200;5.814;2023-12-22T10:27:45;8.70;83.60
59505;DHT22;45321;53.200;5.814;2023-12-22T10:30:11;8.70;83.60
59505;DHT22;45321;53.200;5.814;2023-12-22T10:32:40;8.80;83.60
59505;DHT22;45321;53.200;5.814;2023-12-22T10:35:09;8.80;83.60
59505;DHT22;45321;53.200;5.814;2023-12-22T10:37:35;8.80;83.80
59505;DHT22;45321;53.200;5.814;2023-12-22T10:40:04;8.80;83.70
59505;DHT22;45321;53.200;5.814;2023-12-22T10:42:31;8.80;83.80
59505;DHT22;45321;53.200;5.814;2023-12-22T10:44:57;8.80;83.80
59505;DHT22;45321;53.200;5.814;2023-12-22T10:47:23;8.80;83.90
59505;DHT22;45321;53.200;5.814;2023-12-22T10:49:49;8.80;84.00
59505;DHT22;45321;53.200;5.814;2023-12-22T10:52:16;8.80;84.10
59505;DHT22;45321;53.200;5.814;2023-12-22T10:54:46;8.80;84.10
59505;DHT22;45321;53.200;5.814;2023-12-22T10:57:17;8.80;84.20
59505;DHT22;45321;53.200;5.814;2023-12-22T10:59:47;8.80;84.00
59505;DHT22;45321;53.200;5.814;2023-12-22T11:02:17;8.90;84.00
59505;DHT22;45321;53.200;5.814;2023-12-22T11:05:03;8.90;84.00
59505;DHT22;45321;53.200;5.814;2023-12-22T11:07:33;8.90;83.90
59505;DHT22;45321;53.200;5.814;2023-12-22T11:10:05;8.90;83.80
59505;DHT22;45321;53.200;5.814;2023-12-22T11:12:42;8.90;83.80
59505;DHT22;45321;53.200;5.814;2023-12-22T11:15:10;9.00;84.00
59505;DHT22;45321;53.200;5.814;2023-12-22T11:17:40;9.00;84.00
59505;DHT22;45321;53.200;5.814;2023-12-22T11:20:09;9.00;84.00
59505;DHT22;45321;53.200;5.814;2023-12-22T11:22:36;9.00;84.00
59505;DHT22;45321;53.200;5.814;2023-12-22T11:25:03;9.00;84.00
59505;DHT22;45321;53.200;5.814;2023-12-22T11:27:31;9.10;84.00
59505;DHT22;45321;53.200;5.814;2023-12-22T11:30:00;9.00;84.00
59505;DHT22;45321;53.200;5.814;2023-12-22T11:32:27;9.00;84.00
59505;DHT22;45321;53.200;5.814;2023-12-22T11:34:54;9.00;83.90
59505;DHT22;45321;53.200;5.814;2023-12-22T11:37:22;9.00;83.80
59505;DHT22;45321;53.200;5.814;2023-12-22T11:39:47;9.00;83.80
59505;DHT22;45321;53.200;5.814;2023-12-22T11:42:23;9.00;83.70
59505;DHT22;45321;53.200;5.814;2023-12-22T11:44:50;9.00;83.60
59505;DHT22;45321;53.200;5.814;2023-12-22T11:47:15;9.00;83.60
59505;DHT22;45321;53.200;5.814;2023-12-22T11:49:41;9.00;83.40
59505;DHT22;45321;53.200;5.814;2023-12-22T11:52:15;9.10;83.40
59505;DHT22;45321;53.200;5.814;2023-12-22T11:59:55;9.10;83.00
59505;DHT22;45321;53.200;5.814;2023-12-22T12:02:22;9.00;82.90
59505;DHT22;45321;53.200;5.814;2023-12-22T12:04:48;9.10;82.80
59505;DHT22;45321;53.200;5.814;2023-12-22T12:10:09;9.00;82.90
59505;DHT22;45321;53.200;5.814;2023-12-22T12:12:35;9.10;82.90
59505;DHT22;45321;53.200;5.814;2023-12-22T12:15:10;9.10;82.90
59505;DHT22;45321;53.200;5.814;2023-12-22T12:17:42;9.00;83.00
59505;DHT22;45321;53.200;5.814;2023-12-22T12:20:11;9.00;83.10
59505;DHT22;45321;53.200;5.814;2023-12-22T12:22:43;9.00;83.20
59505;DHT22;45321;53.200;5.814;2023-12-22T12:25:09;9.00;83.60
59505;DHT22;45321;53.200;5.814;2023-12-22T12:27:36;9.00;84.10
59505;DHT22;45321;53.200;5.814;2023-12-22T12:30:12;9.00;84.20
59505;DHT22;45321;53.200;5.814;2023-12-22T12:32:42;9.00;84.20
59505;DHT22;45321;53.200;5.814;2023-12-22T12:35:09;8.90;84.30
59505;DHT22;45321;53.200;5.814;2023-12-22T12:37:36;8.80;84.50
59505;DHT22;45321;53.200;5.814;2023-12-22T12:40:03;8.80;84.60
59505;DHT22;45321;53.200;5.814;2023-12-22T12:42:31;8.80;84.70
59505;DHT22;45321;53.200;5.814;2023-12-22T12:44:57;8.80;84.90
59505;DHT22;45321;53.200;5.814;2023-12-22T12:47:22;8.90;84.80
59505;DHT22;45321;53.200;5.814;2023-12-22T12:50:01;8.90;84.70
59505;DHT22;45321;53.200;5.814;2023-12-22T12:52:28;8.90;84.80
59505;DHT22;45321;53.200;5.814;2023-12-22T12:54:54;8.90;84.70
59505;DHT22;45321;53.200;5.814;2023-12-22T12:57:21;8.80;84.80
59505;DHT22;45321;53.200;5.814;2023-12-22T12:59:48;8.80;84.90
59505;DHT22;45321;53.200;5.814;2023-12-22T13:02:15;8.80;85.00
59505;DHT22;45321;53.200;5.814;2023-12-22T13:04:41;8.80;85.10
59505;DHT22;45321;53.200;5.814;2023-12-22T13:07:08;8.80;85.30
59505;DHT22;45321;53.200;5.814;2023-12-22T13:09:40;8.80;85.80
59505;DHT22;45321;53.200;5.814;2023-12-22T13:12:07;8.80;85.70
59505;DHT22;45321;53.200;5.814;2023-12-22T13:14:34;8.80;85.80
59505;DHT22;45321;53.200;5.814;2023-12-22T13:17:00;8.70;85.70
59505;DHT22;45321;53.200;5.814;2023-12-22T13:19:26;8.70;86.00
59505;DHT22;45321;53.200;5.814;2023-12-22T13:21:55;8.70;86.10
59505;DHT22;45321;53.200;5.814;2023-12-22T13:24:22;8.70;86.50
59505;DHT22;45321;53.200;5.814;2023-12-22T13:27:07;8.70;86.60
59505;DHT22;45321;53.200;5.814;2023-12-22T13:29:43;8.60;86.70
59505;DHT22;45321;53.200;5.814;2023-12-22T13:32:17;8.70;87.10
59505;DHT22;45321;53.200;5.814;2023-12-22T13:35:09;8.60;86.90
59505;DHT22;45321;53.200;5.814;2023-12-22T13:37:40;8.50;87.00
59505;DHT22;45321;53.200;5.814;2023-12-22T13:40:08;8.50;87.10
59505;DHT22;45321;53.200;5.814;2023-12-22T13:42:34;8.50;86.80
59505;DHT22;45321;53.200;5.814;2023-12-22T13:45:01;8.40;86.70
59505;DHT22;45321;53.200;5.814;2023-12-22T13:47:26;8.30;86.80
59505;DHT22;45321;53.200;5.814;2023-12-22T13:49:52;8.30;86.90
59505;DHT22;45321;53.200;5.814;2023-12-22T13:52:28;8.30;86.90
59505;DHT22;45321;53.200;5.814;2023-12-22T13:54:54;8.30;86.90
59505;DHT22;45321;53.200;5.814;2023-12-22T13:57:22;8.30;86.90
59505;DHT22;45321;53.200;5.814;2023-12-22T13:59:48;8.30;87.20
59505;DHT22;45321;53.200;5.814;2023-12-22T14:02:14;8.20;87.20
59505;DHT22;45321;53.200;5.814;2023-12-22T14:04:40;8.30;87.10
59505;DHT22;45321;53.200;5.814;2023-12-22T14:07:06;8.20;87.10
59505;DHT22;45321;53.200;5.814;2023-12-22T14:09:32;8.20;86.80
59505;DHT22;45321;53.200;5.814;2023-12-22T14:11:59;8.20;87.10
59505;DHT22;45321;53.200;5.814;2023-12-22T14:14:25;8.20;87.10
59505;DHT22;45321;53.200;5.814;2023-12-22T14:16:51;8.20;87.00
59505;DHT22;45321;53.200;5.814;2023-12-22T14:19:16;8.20;87.10
59505;DHT22;45321;53.200;5.814;2023-12-22T14:21:42;8.20;87.10
59505;DHT22;45321;53.200;5.814;2023-12-22T14:24:08;8.20;87.10
59505;DHT22;45321;53.200;5.814;2023-12-22T14:26:55;8.20;87.00
59505;DHT22;45321;53.200;5.814;2023-12-22T14:29:21;8.20;87.00
59505;DHT22;45321;53.200;5.814;2023-12-22T14:31:50;8.20;87.00
59505;DHT22;45321;53.200;5.814;2023-12-22T14:34:17;8.20;87.10
59505;DHT22;45321;53.200;5.814;2023-12-22T14:36:43;8.20;87.20
59505;DHT22;45321;53.200;5.814;2023-12-22T14:39:10;8.20;87.10
59505;DHT22;45321;53.200;5.814;2023-12-22T14:41:41;8.20;87.10
59505;DHT22;45321;53.200;5.814;2023-12-22T14:44:08;8.20;87.10
59505;DHT22;45321;53.200;5.814;2023-12-22T14:46:40;8.20;87.10
59505;DHT22;45321;53.200;5.814;2023-12-22T14:49:06;8.20;87.10
59505;DHT22;45321;53.200;5.814;2023-12-22T14:51:38;8.20;87.00
59505;DHT22;45321;53.200;5.814;2023-12-22T14:54:05;8.20;87.00
59505;DHT22;45321;53.200;5.814;2023-12-22T14:56:31;8.20;87.00
59505;DHT22;45321;53.200;5.814;2023-12-22T14:58:57;8.30;87.00
59505;DHT22;45321;53.200;5.814;2023-12-22T15:01:23;8.20;87.00
59505;DHT22;45321;53.200;5.814;2023-12-22T15:03:49;8.30;87.00
59505;DHT22;45321;53.200;5.814;2023-12-22T15:06:15;8.30;86.90
59505;DHT22;45321;53.200;5.814;2023-12-22T15:08:41;8.30;86.90
59505;DHT22;45321;53.200;5.814;2023-12-22T15:11:07;8.30;86.80
59505;DHT22;45321;53.200;5.814;2023-12-22T15:13:34;8.20;86.80
59505;DHT22;45321;53.200;5.814;2023-12-22T15:16:06;8.30;86.80
59505;DHT22;45321;53.200;5.814;2023-12-22T15:18:32;8.30;86.60
59505;DHT22;45321;53.200;5.814;2023-12-22T15:20:58;8.30;86.60
59505;DHT22;45321;53.200;5.814;2023-12-22T15:23:24;8.30;86.50
59505;DHT22;45321;53.200;5.814;2023-12-22T15:25:51;8.30;86.40
59505;DHT22;45321;53.200;5.814;2023-12-22T15:28:17;8.30;86.30
59505;DHT22;45321;53.200;5.814;2023-12-22T15:30:43;8.30;86.20
59505;DHT22;45321;53.200;5.814;2023-12-22T15:33:08;8.30;86.10
59505;DHT22;45321;53.200;5.814;2023-12-22T15:35:34;8.30;85.80
59505;DHT22;45321;53.200;5.814;2023-12-22T15:38:00;8.30;85.60
59505;DHT22;45321;53.200;5.814;2023-12-22T15:40:26;8.30;85.40
59505;DHT22;45321;53.200;5.814;2023-12-22T15:42:51;8.30;85.10
59505;DHT22;45321;53.200;5.814;2023-12-22T15:45:20;8.30;84.70
59505;DHT22;45321;53.200;5.814;2023-12-22T15:47:46;8.30;84.20
59505;DHT22;45321;53.200;5.814;2023-12-22T15:50:12;8.40;83.80
59505;DHT22;45321;53.200;5.814;2023-12-22T15:52:37;8.40;83.50
59505;DHT22;45321;53.200;5.814;2023-12-22T15:55:04;8.30;83.30
59505;DHT22;45321;53.200;5.814;2023-12-22T15:57:29;8.40;83.30